createdAt,value
2022-11-21T00:00:54.961Z,411.60
2022-11-21T00:01:55.021Z,160.30
2022-11-21T00:02:54.970Z,411.00
2022-11-21T00:03:54.943Z,552.00
2022-11-21T00:04:54.963Z,529.90
2022-11-21T00:05:54.936Z,509.60
2022-11-21T00:06:54.897Z,145.90
2022-11-21T00:07:54.901Z,436.90
2022-11-21T00:08:54.876Z,432.50
2022-11-21T00:09:54.903Z,390.30
2022-11-21T00:10:54.861Z,400.80
2022-11-21T00:11:54.833Z,249.10
2022-11-21T00:12:54.820Z,174.60
2022-11-21T00:13:54.812Z,212.80
2022-11-21T00:14:54.836Z,461.50
2022-11-21T00:15:54.793Z,340.50
2022-11-21T00:16:57.508Z,306.60
2022-11-21T00:17:54.780Z,581.90
2022-11-21T00:18:54.752Z,316.40
2022-11-21T00:19:54.781Z,311.70
2022-11-21T00:20:54.737Z,253.30
2022-11-21T00:21:54.739Z,509.30
2022-11-21T00:22:54.720Z,586.30
2022-11-21T00:23:54.720Z,844.60
2022-11-21T00:24:54.740Z,913.90
2022-11-21T00:25:54.701Z,873.70
2022-11-21T00:26:54.673Z,778.80
2022-11-21T00:27:54.656Z,1999.90
2022-11-21T00:28:54.655Z,839.30
2022-11-21T00:29:54.688Z,559.60
2022-11-21T00:30:54.632Z,453.90
2022-11-21T00:31:54.619Z,419.80
2022-11-21T00:32:54.608Z,1999.90
2022-11-21T00:33:54.592Z,419.90
2022-11-21T00:34:54.610Z,551.60
2022-11-21T00:35:54.579Z,878.50
2022-11-21T00:36:54.543Z,1999.90
2022-11-21T00:37:54.556Z,1999.90
2022-11-21T00:38:54.541Z,1999.90
2022-11-21T00:39:54.549Z,1324.40
2022-11-21T00:40:54.517Z,1175.10
2022-11-21T00:41:54.502Z,1582.80
2022-11-21T00:42:54.496Z,1756.90
2022-11-21T00:43:54.508Z,853.40
2022-11-21T00:44:54.525Z,472.80
2022-11-21T00:45:54.455Z,557.30
2022-11-21T00:46:54.463Z,1568.30
2022-11-21T00:47:54.463Z,1999.90
2022-11-21T00:48:54.413Z,1999.90
2022-11-21T00:49:54.448Z,602.50
2022-11-21T00:50:54.387Z,1738.70
2022-11-21T00:51:54.385Z,1999.90
2022-11-21T00:52:54.384Z,1999.90
2022-11-21T00:53:54.376Z,1999.90
2022-11-21T00:54:54.399Z,1999.90
2022-11-21T00:55:54.369Z,1999.90
2022-11-21T00:56:54.344Z,1999.90
2022-11-21T00:57:54.338Z,1999.90
2022-11-21T00:58:54.325Z,1999.90
2022-11-21T00:59:54.339Z,1999.90
2022-11-21T01:00:54.339Z,1999.90
2022-11-21T01:01:54.315Z,1027.90
2022-11-21T01:02:54.277Z,1999.90
2022-11-21T01:03:54.257Z,1999.90
2022-11-21T01:04:54.276Z,1999.90
2022-11-21T01:05:54.241Z,1999.90
2022-11-21T01:06:54.250Z,1999.90
2022-11-21T01:07:54.229Z,1999.90
2022-11-21T01:08:54.213Z,1999.90
2022-11-21T01:09:54.266Z,1999.90
2022-11-21T01:10:54.180Z,1999.90
2022-11-21T01:11:54.181Z,1999.90
2022-11-21T01:12:54.154Z,1999.90
2022-11-21T01:13:54.171Z,1999.90
2022-11-21T01:14:54.192Z,1999.90
2022-11-21T01:15:54.144Z,1999.90
2022-11-21T01:16:54.118Z,1999.90
2022-11-21T01:17:54.121Z,1999.90
2022-11-21T01:18:54.086Z,1999.90
2022-11-21T01:19:54.128Z,1999.90
2022-11-21T01:20:54.070Z,1999.90
2022-11-21T01:21:54.063Z,1999.90
2022-11-21T01:22:54.050Z,1999.90
2022-11-21T01:23:54.054Z,1999.90
2022-11-21T01:24:54.045Z,1999.90
2022-11-21T01:25:54.001Z,1999.90
2022-11-21T01:26:53.998Z,1999.90
2022-11-21T01:27:53.985Z,1999.90
2022-11-21T01:28:53.981Z,1999.90
2022-11-21T01:29:54.034Z,1999.90
2022-11-21T01:30:53.959Z,1999.90
2022-11-21T01:31:53.959Z,1999.90
2022-11-21T01:32:53.938Z,1999.90
2022-11-21T01:33:53.964Z,1999.90
2022-11-21T01:34:53.957Z,1999.90
2022-11-21T01:35:53.896Z,1999.90
2022-11-21T01:36:53.899Z,1999.90
2022-11-21T01:37:53.897Z,1999.90
2022-11-21T01:38:53.884Z,1999.90
2022-11-21T01:39:53.898Z,1999.90
2022-11-21T01:40:53.854Z,1999.90
2022-11-21T01:41:53.841Z,1999.90
2022-11-21T01:42:53.811Z,1340.20
2022-11-21T01:43:53.817Z,1999.90
2022-11-21T01:44:53.818Z,1999.90
2022-11-21T01:45:53.850Z,719.70
2022-11-21T01:46:53.775Z,1999.90
2022-11-21T01:47:53.785Z,1999.90
2022-11-21T01:48:53.753Z,598.20
2022-11-21T01:49:53.756Z,1999.90
2022-11-21T01:50:53.785Z,437.40
2022-11-21T01:51:53.741Z,604.80
2022-11-21T01:52:53.716Z,686.20
2022-11-21T01:53:53.717Z,1999.90
2022-11-21T01:54:53.702Z,1999.90
2022-11-21T01:55:53.720Z,1999.90
2022-11-21T01:56:53.677Z,833.70
2022-11-21T01:57:53.670Z,1999.90
2022-11-21T01:58:53.664Z,1999.90
2022-11-21T01:59:53.645Z,1999.90
2022-11-21T02:00:53.679Z,1999.90
2022-11-21T02:01:53.608Z,1999.90
2022-11-21T02:02:53.597Z,1999.90
2022-11-21T02:03:53.586Z,1999.90
2022-11-21T02:04:53.594Z,1999.90
2022-11-21T02:05:53.618Z,904.70
2022-11-21T02:06:53.573Z,553.30
2022-11-21T02:07:53.556Z,516.90
2022-11-21T02:08:53.547Z,1070.50
2022-11-21T02:09:53.541Z,1999.90
2022-11-21T02:10:53.557Z,593.80
2022-11-21T02:11:53.524Z,533.10
2022-11-21T02:12:53.491Z,468.10
2022-11-21T02:13:53.486Z,415.90
2022-11-21T02:14:53.476Z,467.90
2022-11-21T02:15:53.504Z,491.10
2022-11-21T02:16:53.436Z,384.30
2022-11-21T02:17:53.436Z,858.10
2022-11-21T02:18:53.434Z,592.50
2022-11-21T02:19:53.454Z,614.10
2022-11-21T02:20:53.447Z,262.20
2022-11-21T02:21:53.398Z,919.50
2022-11-21T02:22:53.399Z,723.40
2022-11-21T02:23:57.659Z,282.20
2022-11-21T02:24:54.357Z,449.70
2022-11-21T02:25:53.382Z,472.30
2022-11-21T02:26:53.326Z,513.00
2022-11-21T02:27:53.329Z,272.80
2022-11-21T02:28:53.314Z,469.80
2022-11-21T02:29:53.322Z,515.00
2022-11-21T02:30:53.345Z,377.30
2022-11-21T02:31:53.305Z,324.00
2022-11-21T02:32:53.272Z,391.60
2022-11-21T02:33:53.264Z,298.90
2022-11-21T02:34:53.264Z,246.40
2022-11-21T02:35:53.302Z,255.50
2022-11-21T02:36:53.221Z,368.70
2022-11-21T02:37:53.219Z,252.80
2022-11-21T02:38:53.196Z,240.30
2022-11-21T02:39:53.184Z,250.50
2022-11-21T02:40:53.214Z,267.10
2022-11-21T02:41:53.180Z,266.20
2022-11-21T02:42:53.174Z,286.90
2022-11-21T02:43:53.164Z,198.10
2022-11-21T02:44:53.131Z,246.00
2022-11-21T02:45:53.181Z,225.90
2022-11-21T02:46:53.110Z,293.60
2022-11-21T02:47:53.113Z,197.00
2022-11-21T02:48:53.087Z,274.00
2022-11-21T02:49:53.099Z,232.60
2022-11-21T02:50:53.107Z,188.90
2022-11-21T02:51:53.079Z,269.20
2022-11-21T02:52:53.031Z,236.10
2022-11-21T02:53:53.045Z,227.00
2022-11-21T02:54:53.038Z,163.00
2022-11-21T02:55:53.099Z,153.20
2022-11-21T02:56:53.014Z,192.20
2022-11-21T02:57:52.993Z,143.30
2022-11-21T02:58:53.012Z,237.90
2022-11-21T02:59:52.982Z,313.30
2022-11-21T03:00:53.038Z,148.60
2022-11-21T03:01:52.957Z,139.10
2022-11-21T03:02:52.970Z,242.60
2022-11-21T03:03:52.937Z,269.20
2022-11-21T03:04:52.923Z,156.20
2022-11-21T03:05:52.921Z,177.70
2022-11-21T03:06:52.946Z,270.00
2022-11-21T03:07:52.906Z,159.30
2022-11-21T03:08:52.894Z,141.30
2022-11-21T03:09:52.875Z,124.20
2022-11-21T03:10:52.862Z,254.00
2022-11-21T03:11:52.868Z,368.50
2022-11-21T03:12:52.856Z,176.00
2022-11-21T03:13:52.811Z,250.20
2022-11-21T03:14:52.811Z,306.40
2022-11-21T03:15:53.518Z,249.90
2022-11-21T03:16:52.832Z,122.90
2022-11-21T03:17:52.772Z,189.10
2022-11-21T03:18:52.779Z,309.40
2022-11-21T03:19:52.748Z,130.40
2022-11-21T03:20:52.761Z,134.90
2022-11-21T03:21:52.785Z,157.60
2022-11-21T03:22:52.728Z,257.10
2022-11-21T03:23:52.717Z,326.50
2022-11-21T03:24:52.701Z,139.50
2022-11-21T03:25:52.692Z,199.60
2022-11-21T03:26:52.721Z,299.80
2022-11-21T03:27:52.673Z,303.70
2022-11-21T03:28:52.664Z,126.60
2022-11-21T03:29:52.650Z,120.80
2022-11-21T03:30:52.648Z,150.30
2022-11-21T03:31:52.650Z,152.90
2022-11-21T03:32:52.617Z,228.60
2022-11-21T03:33:52.594Z,327.30
2022-11-21T03:34:52.591Z,238.50
2022-11-21T03:35:52.573Z,133.80
2022-11-21T03:36:52.590Z,217.60
2022-11-21T03:37:52.543Z,278.30
2022-11-21T03:38:52.559Z,141.10
2022-11-21T03:39:52.539Z,142.30
2022-11-21T03:40:52.540Z,138.60
2022-11-21T03:41:52.599Z,138.00
2022-11-21T03:42:52.506Z,292.00
2022-11-21T03:43:52.491Z,240.70
2022-11-21T03:44:52.476Z,133.30
2022-11-21T03:45:52.475Z,143.80
2022-11-21T03:46:52.496Z,212.40
2022-11-21T03:47:52.451Z,264.70
2022-11-21T03:48:52.444Z,147.20
2022-11-21T03:49:52.423Z,146.20
2022-11-21T03:50:52.402Z,236.60
2022-11-21T03:51:52.422Z,126.80
2022-11-21T03:52:52.383Z,145.90
2022-11-21T03:53:52.366Z,130.20
2022-11-21T03:54:52.381Z,142.80
2022-11-21T03:55:52.352Z,172.00
2022-11-21T03:56:52.381Z,208.50
2022-11-21T03:57:52.330Z,168.60
2022-11-21T03:58:52.317Z,174.20
2022-11-21T03:59:52.318Z,261.30
2022-11-21T04:00:52.323Z,208.30
2022-11-21T04:01:52.359Z,145.00
2022-11-21T04:02:52.271Z,154.60
2022-11-21T04:03:52.271Z,145.30
2022-11-21T04:04:52.274Z,170.10
2022-11-21T04:05:52.251Z,241.70
2022-11-21T04:06:52.291Z,242.50
2022-11-21T04:07:52.228Z,160.10
2022-11-21T04:08:52.221Z,150.00
2022-11-21T04:09:52.183Z,148.80
2022-11-21T04:10:52.212Z,295.00
2022-11-21T04:11:52.218Z,206.20
2022-11-21T04:12:52.181Z,169.00
2022-11-21T04:13:52.150Z,236.90
2022-11-21T04:14:52.161Z,253.80
2022-11-21T04:15:52.136Z,173.40
2022-11-21T04:16:52.159Z,155.40
2022-11-21T04:17:52.113Z,149.50
2022-11-21T04:18:52.121Z,163.10
2022-11-21T04:19:52.088Z,252.10
2022-11-21T04:20:52.091Z,194.70
2022-11-21T04:21:52.106Z,157.20
2022-11-21T04:22:52.065Z,141.80
2022-11-21T04:23:52.053Z,170.00
2022-11-21T04:24:52.038Z,148.80
2022-11-21T04:25:52.023Z,262.20
2022-11-21T04:26:52.053Z,333.00
2022-11-21T04:27:52.033Z,171.90
2022-11-21T04:28:51.990Z,185.40
2022-11-21T04:29:51.988Z,166.80
2022-11-21T04:30:54.839Z,159.90
2022-11-21T04:31:51.993Z,193.40
2022-11-21T04:32:51.966Z,290.80
2022-11-21T04:33:51.946Z,196.90
2022-11-21T04:34:51.942Z,168.80
2022-11-21T04:35:51.913Z,168.30
2022-11-21T04:36:51.971Z,252.10
2022-11-21T04:37:51.904Z,251.10
2022-11-21T04:38:51.921Z,191.60
2022-11-21T04:39:51.866Z,198.70
2022-11-21T04:40:51.874Z,163.60
2022-11-21T04:41:51.895Z,214.80
2022-11-21T04:42:51.863Z,200.00
2022-11-21T04:43:51.835Z,248.10
2022-11-21T04:44:51.847Z,187.30
2022-11-21T04:45:51.826Z,166.40
2022-11-21T04:46:51.839Z,183.50
2022-11-21T04:47:51.794Z,175.30
2022-11-21T04:48:51.783Z,167.00
2022-11-21T04:49:51.774Z,256.60
2022-11-21T04:50:51.774Z,281.60
2022-11-21T04:51:51.772Z,167.20
2022-11-21T04:52:51.727Z,171.00
2022-11-21T04:53:51.732Z,165.80
2022-11-21T04:54:51.724Z,189.00
2022-11-21T04:55:51.706Z,265.40
2022-11-21T04:56:51.751Z,256.40
2022-11-21T04:57:51.666Z,166.50
2022-11-21T04:58:51.672Z,146.20
2022-11-21T04:59:51.656Z,221.30
2022-11-21T05:00:51.691Z,274.80
2022-11-21T05:01:51.633Z,291.60
2022-11-21T05:02:51.657Z,186.70
2022-11-21T05:03:51.598Z,154.30
2022-11-21T05:04:51.586Z,155.80
2022-11-21T05:05:51.585Z,128.30
2022-11-21T05:06:51.600Z,181.20
2022-11-21T05:07:51.614Z,289.70
2022-11-21T05:08:53.589Z,301.50
2022-11-21T05:09:51.548Z,281.30
2022-11-21T05:10:51.535Z,184.40
2022-11-21T05:11:51.535Z,184.30
2022-11-21T05:12:51.587Z,146.50
2022-11-21T05:13:51.504Z,264.40
2022-11-21T05:14:51.500Z,296.00
2022-11-21T05:15:51.506Z,262.80
2022-11-21T05:16:51.478Z,183.00
2022-11-21T05:17:51.496Z,165.80
2022-11-21T05:18:51.460Z,168.60
2022-11-21T05:19:51.453Z,210.10
2022-11-21T05:20:51.460Z,243.80
2022-11-21T05:21:51.419Z,223.70
2022-11-21T05:22:51.443Z,190.70
2022-11-21T05:23:51.406Z,181.60
2022-11-21T05:24:51.408Z,220.00
2022-11-21T05:25:51.380Z,276.20
2022-11-21T05:26:51.380Z,184.30
2022-11-21T05:27:51.401Z,182.10
2022-11-21T05:28:51.371Z,236.50
2022-11-21T05:29:51.334Z,216.60
2022-11-21T05:30:51.357Z,184.50
2022-11-21T05:31:51.333Z,194.00
2022-11-21T05:32:51.335Z,189.00
2022-11-21T05:33:51.302Z,202.00
2022-11-21T05:34:51.286Z,261.40
2022-11-21T05:35:51.264Z,182.00
2022-11-21T05:36:51.251Z,199.30
2022-11-21T05:37:51.270Z,183.60
2022-11-21T05:38:51.228Z,253.20
2022-11-21T05:39:51.201Z,202.20
2022-11-21T05:40:51.206Z,189.10
2022-11-21T05:41:51.217Z,215.30
2022-11-21T05:42:51.254Z,191.10
2022-11-21T05:43:51.172Z,201.20
2022-11-21T05:44:51.180Z,245.60
2022-11-21T05:45:51.165Z,231.50
2022-11-21T05:46:51.153Z,193.90
2022-11-21T05:47:51.178Z,197.70
2022-11-21T05:48:51.137Z,247.80
2022-11-21T05:49:51.106Z,281.10
2022-11-21T05:50:51.117Z,183.50
2022-11-21T05:51:51.101Z,187.50
2022-11-21T05:52:51.092Z,192.60
2022-11-21T05:53:51.120Z,215.50
2022-11-21T05:54:51.057Z,268.10
2022-11-21T05:55:51.054Z,240.60
2022-11-21T05:56:51.029Z,187.50
2022-11-21T05:57:51.053Z,191.90
2022-11-21T05:58:51.060Z,201.90
2022-11-21T05:59:50.985Z,210.20
2022-11-21T06:00:54.445Z,262.80
2022-11-21T06:01:51.977Z,261.50
2022-11-21T06:02:51.095Z,181.30
2022-11-21T06:03:50.993Z,173.30
2022-11-21T06:04:50.954Z,194.40
2022-11-21T06:05:50.948Z,216.90
2022-11-21T06:06:50.932Z,230.50
2022-11-21T06:07:50.934Z,172.90
2022-11-21T06:08:50.944Z,194.80
2022-11-21T06:09:50.891Z,203.20
2022-11-21T06:10:50.900Z,279.50
2022-11-21T06:11:50.863Z,206.00
2022-11-21T06:12:50.876Z,187.10
2022-11-21T06:13:50.872Z,187.90
2022-11-21T06:14:50.843Z,205.30
2022-11-21T06:15:50.857Z,167.10
2022-11-21T06:16:50.831Z,234.20
2022-11-21T06:17:50.815Z,208.30
2022-11-21T06:18:55.129Z,192.10
2022-11-21T06:19:51.773Z,177.70
2022-11-21T06:20:50.777Z,198.00
2022-11-21T06:21:50.774Z,226.30
2022-11-21T06:22:50.767Z,230.80
2022-11-21T06:23:50.780Z,180.00
2022-11-21T06:24:50.741Z,207.20
2022-11-21T06:25:50.737Z,202.10
2022-11-21T06:26:50.732Z,214.50
2022-11-21T06:27:50.691Z,196.30
2022-11-21T06:28:50.722Z,286.30
2022-11-21T06:29:50.680Z,282.40
2022-11-21T06:30:50.680Z,185.50
2022-11-21T06:31:50.650Z,185.80
2022-11-21T06:32:50.700Z,214.00
2022-11-21T06:33:50.691Z,198.30
2022-11-21T06:34:50.647Z,209.80
2022-11-21T06:35:50.611Z,193.20
2022-11-21T06:36:50.605Z,164.30
2022-11-21T06:37:53.485Z,187.00
2022-11-21T06:38:50.581Z,188.20
2022-11-21T06:39:50.617Z,188.40
2022-11-21T06:40:50.557Z,211.10
2022-11-21T06:41:50.561Z,284.70
2022-11-21T06:42:50.539Z,186.20
2022-11-21T06:43:50.525Z,233.80
2022-11-21T06:44:50.559Z,163.10
2022-11-21T06:45:50.520Z,243.10
2022-11-21T06:46:51.681Z,253.80
2022-11-21T06:47:50.485Z,229.50
2022-11-21T06:48:50.470Z,177.50
2022-11-21T06:49:50.495Z,255.60
2022-11-21T06:50:50.445Z,286.20
2022-11-21T06:51:50.429Z,242.00
2022-11-21T06:52:50.419Z,190.60
2022-11-21T06:53:50.413Z,203.80
2022-11-21T06:54:50.445Z,245.00
2022-11-21T06:55:50.395Z,248.20
2022-11-21T06:56:50.409Z,274.40
2022-11-21T06:57:50.378Z,261.00
2022-11-21T06:58:50.382Z,283.80
2022-11-21T06:59:50.394Z,267.50
2022-11-21T07:00:50.453Z,271.80
2022-11-21T07:01:50.378Z,224.40
2022-11-21T07:02:50.313Z,230.20
2022-11-21T07:03:50.312Z,253.60
2022-11-21T07:04:50.346Z,236.70
2022-11-21T07:05:50.293Z,248.50
2022-11-21T07:06:50.276Z,298.60
2022-11-21T07:07:50.272Z,225.50
2022-11-21T07:09:05.014Z,198.30
2022-11-21T07:09:51.423Z,266.80
2022-11-21T07:11:17.748Z,266.00
2022-11-21T07:11:51.200Z,233.60
2022-11-21T07:12:50.202Z,250.70
2022-11-21T07:13:50.209Z,248.40
2022-11-21T07:14:50.221Z,222.10
2022-11-21T07:15:50.182Z,190.90
2022-11-21T07:16:50.169Z,189.20
2022-11-21T07:17:50.166Z,186.20
2022-11-21T07:18:50.155Z,192.00
2022-11-21T07:19:50.212Z,210.10
2022-11-21T07:20:50.126Z,247.40
2022-11-21T07:21:50.114Z,202.30
2022-11-21T07:22:50.109Z,261.10
2022-11-21T07:23:50.107Z,257.30
2022-11-21T07:24:50.118Z,254.60
2022-11-21T07:25:50.081Z,233.00
2022-11-21T07:26:50.047Z,261.20
2022-11-21T07:27:50.055Z,177.30
2022-11-21T07:28:50.047Z,213.90
2022-11-21T07:29:50.053Z,225.20
2022-11-21T07:30:50.007Z,169.00
2022-11-21T07:31:50.024Z,277.20
2022-11-21T07:32:49.987Z,177.80
2022-11-21T07:33:50.000Z,181.70
2022-11-21T07:34:49.989Z,176.00
2022-11-21T07:35:50.020Z,174.40
2022-11-21T07:36:49.956Z,286.20
2022-11-21T07:37:49.938Z,278.60
2022-11-21T07:38:49.923Z,201.30
2022-11-21T07:39:49.918Z,194.80
2022-11-21T07:40:49.924Z,220.60
2022-11-21T07:41:49.907Z,231.50
2022-11-21T07:42:49.902Z,350.10
2022-11-21T07:43:49.868Z,239.80
2022-11-21T07:44:49.873Z,254.10
2022-11-21T07:45:49.904Z,193.80
2022-11-21T07:46:49.857Z,211.60
2022-11-21T07:47:49.850Z,176.70
2022-11-21T07:48:49.825Z,258.10
2022-11-21T07:49:49.824Z,215.70
2022-11-21T07:50:49.831Z,202.70
2022-11-21T07:51:49.794Z,426.20
2022-11-21T07:52:49.782Z,173.60
2022-11-21T07:53:49.761Z,174.50
2022-11-21T07:54:49.768Z,210.60
2022-11-21T07:55:49.781Z,331.00
2022-11-21T07:56:49.729Z,329.20
2022-11-21T07:57:49.747Z,271.90
2022-11-21T07:58:49.725Z,201.90
2022-11-21T07:59:49.697Z,185.80
2022-11-21T08:00:49.724Z,257.40
2022-11-21T08:01:49.715Z,486.40
2022-11-21T08:02:49.656Z,345.00
2022-11-21T08:03:49.657Z,313.30
2022-11-21T08:04:49.635Z,284.80
2022-11-21T08:05:49.705Z,289.40
2022-11-21T08:06:49.641Z,452.10
2022-11-21T08:07:49.611Z,489.80
2022-11-21T08:08:50.551Z,550.10
2022-11-21T08:09:49.591Z,300.00
2022-11-21T08:10:49.612Z,394.60
2022-11-21T08:11:49.590Z,236.90
2022-11-21T08:12:49.550Z,377.60
2022-11-21T08:13:49.555Z,308.20
2022-11-21T08:14:49.517Z,364.50
2022-11-21T08:15:49.560Z,253.60
2022-11-21T08:16:49.508Z,751.50
2022-11-21T08:17:49.506Z,259.40
2022-11-21T08:18:49.504Z,519.50
2022-11-21T08:19:49.479Z,628.30
2022-11-21T08:20:49.499Z,372.00
2022-11-21T08:21:49.460Z,468.60
2022-11-21T08:22:49.454Z,263.80
2022-11-21T08:23:49.439Z,377.80
2022-11-21T08:24:49.465Z,361.00
2022-11-21T08:25:49.464Z,1999.90
2022-11-21T08:26:49.418Z,360.20
2022-11-21T08:27:49.405Z,320.10
2022-11-21T08:28:49.379Z,1999.90
2022-11-21T08:29:49.407Z,262.40
2022-11-21T08:30:49.380Z,311.70
2022-11-21T08:31:49.358Z,323.60
2022-11-21T08:32:49.338Z,828.60
2022-11-21T08:33:49.340Z,477.10
2022-11-21T08:34:49.314Z,411.10
2022-11-21T08:35:49.333Z,363.50
2022-11-21T08:36:49.298Z,433.30
2022-11-21T08:37:49.302Z,1999.90
2022-11-21T08:38:49.254Z,255.30
2022-11-21T08:39:49.267Z,487.50
2022-11-21T08:40:49.267Z,348.30
2022-11-21T08:41:49.251Z,1999.90
2022-11-21T08:42:49.229Z,1999.90
2022-11-21T08:43:49.224Z,229.80
2022-11-21T08:44:49.231Z,328.70
2022-11-21T08:45:49.234Z,343.90
2022-11-21T08:46:49.201Z,382.70
2022-11-21T08:47:49.182Z,275.70
2022-11-21T08:48:49.157Z,379.50
2022-11-21T08:49:49.157Z,1999.90
2022-11-21T08:50:49.171Z,1999.90
2022-11-21T08:51:49.174Z,1999.90
2022-11-21T08:52:49.105Z,1999.90
2022-11-21T08:53:49.117Z,465.60
2022-11-21T08:54:49.107Z,411.80
2022-11-21T08:55:49.130Z,1999.90
2022-11-21T08:56:49.064Z,1999.90
2022-11-21T08:57:49.061Z,312.40
2022-11-21T08:58:49.074Z,494.20
2022-11-21T08:59:49.042Z,575.80
2022-11-21T09:00:49.062Z,1999.90
2022-11-21T09:01:49.069Z,1999.90
2022-11-21T09:02:49.034Z,1999.90
2022-11-21T09:03:49.021Z,1999.90
2022-11-21T09:04:48.976Z,1999.90
2022-11-21T09:05:49.003Z,1999.90
2022-11-21T09:06:48.968Z,1999.90
2022-11-21T09:07:49.038Z,1999.90
2022-11-21T09:08:48.944Z,1999.90
2022-11-21T09:09:48.937Z,1999.90
2022-11-21T09:10:48.956Z,1999.90
2022-11-21T09:11:48.919Z,1999.90
2022-11-21T09:12:48.895Z,1999.90
2022-11-21T09:13:48.879Z,1999.90
2022-11-21T09:14:49.523Z,1999.90
2022-11-21T09:15:48.887Z,1999.90
2022-11-21T09:16:48.837Z,1999.90
2022-11-21T09:17:48.824Z,1999.90
2022-11-21T09:18:48.831Z,1999.90
2022-11-21T09:19:48.814Z,1999.90
2022-11-21T09:20:48.902Z,1999.90
2022-11-21T09:21:48.799Z,1999.90
2022-11-21T09:22:48.780Z,1999.90
2022-11-21T09:23:48.772Z,1999.90
2022-11-21T09:24:48.758Z,1999.90
2022-11-21T09:25:48.785Z,1999.90
2022-11-21T09:26:48.829Z,1999.90
2022-11-21T09:27:48.725Z,1999.90
2022-11-21T09:28:48.723Z,1999.90
2022-11-21T09:29:53.870Z,1999.90
2022-11-21T09:30:49.748Z,1999.90
2022-11-21T09:31:48.695Z,1999.90
2022-11-21T09:32:48.671Z,1999.90
2022-11-21T09:33:53.595Z,1999.90
2022-11-21T09:34:49.672Z,1999.90
2022-11-21T09:35:48.674Z,1999.90
2022-11-21T09:36:48.643Z,1999.90
2022-11-21T09:37:48.628Z,1999.90
2022-11-21T09:38:48.600Z,1999.90
2022-11-21T09:39:49.072Z,1999.90
2022-11-21T09:40:48.598Z,1999.90
2022-11-21T09:41:48.606Z,1999.90
2022-11-21T09:42:48.562Z,1999.90
2022-11-21T09:43:53.045Z,1999.90
2022-11-21T09:44:49.558Z,1999.90
2022-11-21T09:45:48.537Z,1999.90
2022-11-21T09:46:48.548Z,1999.90
2022-11-21T09:47:48.503Z,1999.90
2022-11-21T09:48:48.489Z,1999.90
2022-11-21T09:49:48.483Z,1999.90
2022-11-21T09:50:53.564Z,1999.90
2022-11-21T09:51:49.508Z,1999.90
2022-11-21T09:52:48.427Z,1999.90
2022-11-21T09:53:49.652Z,1999.90
2022-11-21T09:54:48.415Z,1999.90
2022-11-21T09:55:48.416Z,401.10
2022-11-21T09:56:48.449Z,476.60
2022-11-21T09:57:48.420Z,538.80
2022-11-21T09:58:48.401Z,604.30
2022-11-21T09:59:48.370Z,353.90
2022-11-21T10:00:48.379Z,372.00
2022-11-21T10:01:48.383Z,316.10
2022-11-21T10:02:48.343Z,43.50
2022-11-21T10:03:48.325Z,334.10
2022-11-21T10:04:48.330Z,477.30
2022-11-21T10:05:48.303Z,137.40
2022-11-21T10:06:48.329Z,296.10
2022-11-21T10:07:48.316Z,234.90
2022-11-21T10:08:48.267Z,1999.90
2022-11-21T10:09:48.349Z,332.60
2022-11-21T10:10:48.238Z,1999.90
2022-11-21T10:11:48.255Z,394.70
2022-11-21T10:12:48.222Z,130.40
2022-11-21T10:13:48.197Z,398.80
2022-11-21T10:14:48.257Z,177.90
2022-11-21T10:15:48.190Z,158.40
2022-11-21T10:16:48.205Z,342.70
2022-11-21T10:17:48.279Z,406.00
2022-11-21T10:18:49.529Z,1999.90
2022-11-21T10:19:48.151Z,523.90
2022-11-21T10:20:48.113Z,229.10
2022-11-21T10:21:48.156Z,359.60
2022-11-21T10:22:48.134Z,188.50
2022-11-21T10:23:48.111Z,513.70
2022-11-21T10:24:48.074Z,340.80
2022-11-21T10:25:48.088Z,520.30
2022-11-21T10:26:48.065Z,74.20
2022-11-21T10:27:48.037Z,420.50
2022-11-21T10:28:48.019Z,190.50
2022-11-21T10:29:48.016Z,57.00
2022-11-21T10:30:48.033Z,99.30
2022-11-21T10:31:48.042Z,94.50
2022-11-21T10:32:47.997Z,51.70
2022-11-21T10:33:47.988Z,50.50
2022-11-21T10:34:47.946Z,31.00
2022-11-21T10:35:47.956Z,37.60
2022-11-21T10:36:47.986Z,33.20
2022-11-21T10:37:47.924Z,37.40
2022-11-21T10:38:47.914Z,41.90
2022-11-21T10:39:47.920Z,41.60
2022-11-21T10:40:47.893Z,46.90
2022-11-21T10:41:47.929Z,48.90
2022-11-21T10:42:48.626Z,43.00
2022-11-21T10:43:47.887Z,76.00
2022-11-21T10:44:47.860Z,56.90
2022-11-21T10:45:47.844Z,54.30
2022-11-21T10:46:47.861Z,42.40
2022-11-21T10:47:47.812Z,46.50
2022-11-21T10:48:47.819Z,33.10
2022-11-21T10:49:47.801Z,34.60
2022-11-21T10:50:47.798Z,33.40
2022-11-21T10:51:47.852Z,29.80
2022-11-21T10:52:48.114Z,40.90
2022-11-21T10:53:47.759Z,51.10
2022-11-21T10:54:47.748Z,36.50
2022-11-21T10:55:47.739Z,43.20
2022-11-21T10:56:47.712Z,44.60
2022-11-21T10:57:47.744Z,41.60
2022-11-21T10:58:48.168Z,36.80
2022-11-21T10:59:47.690Z,41.00
2022-11-21T11:00:47.716Z,32.70
2022-11-21T11:01:48.060Z,41.30
2022-11-21T11:02:47.683Z,43.60
2022-11-21T11:04:06.949Z,42.60
2022-11-21T11:04:52.191Z,32.30
2022-11-21T11:05:47.631Z,38.30
2022-11-21T11:06:47.620Z,36.10
2022-11-21T11:07:47.683Z,28.30
2022-11-21T11:08:47.623Z,38.40
2022-11-21T11:09:47.601Z,40.90
2022-11-21T11:10:47.554Z,28.40
2022-11-21T11:11:48.150Z,38.20
2022-11-21T11:12:47.576Z,27.50
2022-11-21T11:13:49.414Z,32.00
2022-11-21T11:14:47.525Z,30.50
2022-11-21T11:15:47.531Z,30.80
2022-11-21T11:16:47.494Z,29.40
2022-11-21T11:17:48.097Z,24.30
2022-11-21T11:18:47.480Z,26.70
2022-11-21T11:19:47.955Z,26.10
2022-11-21T11:20:47.470Z,29.50
2022-11-21T11:21:47.436Z,31.50
2022-11-21T11:22:48.083Z,33.60
2022-11-21T11:23:47.444Z,29.90
2022-11-21T11:24:47.416Z,32.40
2022-11-21T11:25:47.900Z,30.50
2022-11-21T11:26:48.645Z,29.40
2022-11-21T11:27:47.415Z,30.40
2022-11-21T11:28:47.916Z,30.60
2022-11-21T11:29:47.350Z,30.40
2022-11-21T11:30:47.346Z,25.50
2022-11-21T11:31:47.339Z,25.30
2022-11-21T11:32:48.072Z,23.70
2022-11-21T11:33:47.293Z,24.40
2022-11-21T11:34:47.320Z,21.60
2022-11-21T11:35:47.281Z,19.90
2022-11-21T11:36:47.320Z,20.60
2022-11-21T11:37:47.267Z,21.40
2022-11-21T11:38:47.353Z,17.60
2022-11-21T11:39:48.119Z,19.80
2022-11-21T11:40:47.216Z,20.30
2022-11-21T11:41:47.302Z,15.80
2022-11-21T11:42:47.295Z,16.20
2022-11-21T11:43:47.295Z,16.90
2022-11-21T11:44:47.194Z,15.90
2022-11-21T11:45:47.173Z,15.40
2022-11-21T11:46:47.236Z,13.70
2022-11-21T11:47:54.131Z,15.50
2022-11-21T11:49:17.546Z,13.80
2022-11-21T11:49:48.118Z,15.50
2022-11-21T11:50:47.124Z,15.70
2022-11-21T11:51:47.101Z,16.30
2022-11-21T11:52:47.134Z,16.70
2022-11-21T11:53:47.228Z,16.30
2022-11-21T11:54:47.168Z,16.50
2022-11-21T11:55:47.085Z,17.20
2022-11-21T11:56:47.368Z,18.70
2022-11-21T11:57:47.091Z,22.50
2022-11-21T11:58:47.063Z,24.40
2022-11-21T11:59:47.106Z,24.60
2022-11-21T12:00:47.001Z,24.70
2022-11-21T12:01:47.069Z,23.30
2022-11-21T12:02:47.173Z,26.20
2022-11-21T12:03:47.179Z,17.90
2022-11-21T12:04:47.108Z,13.10
2022-11-21T12:05:47.053Z,12.40
2022-11-21T12:08:39.636Z,14.50
2022-11-21T12:08:47.952Z,14.50
2022-11-21T12:09:46.897Z,14.50
2022-11-21T12:10:46.908Z,15.50
2022-11-21T12:11:46.989Z,15.50
2022-11-21T12:12:46.889Z,14.90
2022-11-21T12:13:47.944Z,13.70
2022-11-21T12:14:47.044Z,12.50
2022-11-21T12:15:47.161Z,14.40
2022-11-21T12:16:47.096Z,45.10
2022-11-21T12:17:47.122Z,29.00
2022-11-21T12:18:47.118Z,22.90
2022-11-21T12:19:47.128Z,28.30
2022-11-21T12:20:46.791Z,19.30
2022-11-21T12:21:46.787Z,24.40
2022-11-21T12:22:47.134Z,21.10
2022-11-21T12:23:47.258Z,20.30
2022-11-21T12:24:48.116Z,13.50
2022-11-21T12:25:47.374Z,22.40
2022-11-21T12:26:47.161Z,28.50
2022-11-21T12:27:47.091Z,25.70
2022-11-21T12:28:47.156Z,36.10